Time;durP1;ratioP1;P1;durP2;ratioP2;P2;SDS_P1;SDS_P2;PMS_P1;PMS_P2;Temp;Humidity;BMP_temperature;BMP_pressure;BME280_temperature;BME280_humidity;BME280_pressure;Samples;Min_cycle;Max_cycle;Signal;HPM_P1;HPM_P2
2024/01/04 00:00:03;;;;;;;7.90;4.63;;;;;;;;;;5097712;28;20038;-65
2024/01/04 00:02:30;;;;;;;8.98;5.38;;;;;;;;;;5095947;28;20046;-67
2024/01/04 00:04:56;;;;;;;7.55;5.07;;;;;;;;;;5076762;28;20116;-68
2024/01/04 00:07:21;;;;;;;8.18;4.75;;;;;;;;;;5096629;28;20406;-68
2024/01/04 00:09:48;;;;;;;10.95;6.85;;;;;;;;;;5079511;28;20047;-68
2024/01/04 00:12:13;;;;;;;10.73;6.55;;;;;;;;;;5072363;28;20707;-66
2024/01/04 00:14:39;;;;;;;12.70;10.18;;;;;;;;;;5073079;28;20036;-68
2024/01/04 00:17:04;;;;;;;21.95;14.98;;;;;;;;;;5074892;28;20206;-66
2024/01/04 00:19:29;;;;;;;20.58;15.60;;;;;;;;;;5074314;28;20055;-66
2024/01/04 00:21:55;;;;;;;11.27;8.15;;;;;;;;;;5073207;28;20087;-68
2024/01/04 00:24:20;;;;;;;11.18;8.55;;;;;;;;;;5073934;28;20031;-66
2024/01/04 00:26:45;;;;;;;18.42;14.00;;;;;;;;;;5072380;28;20020;-67
2024/01/04 00:29:11;;;;;;;31.85;24.95;;;;;;;;;;5071515;28;20416;-67
2024/01/04 00:31:36;;;;;;;31.98;23.90;;;;;;;;;;5071549;28;20401;-68
2024/01/04 00:34:02;;;;;;;27.95;21.77;;;;;;;;;;5074045;28;20028;-67
2024/01/04 00:36:27;;;;;;;29.05;21.33;;;;;;;;;;5071515;28;20028;-68
2024/01/04 00:38:52;;;;;;;22.05;16.25;;;;;;;;;;5072824;28;20119;-66
2024/01/04 00:41:18;;;;;;;22.50;16.90;;;;;;;;;;5077120;28;20028;-67
2024/01/04 00:43:43;;;;;;;22.60;16.10;;;;;;;;;;5076982;28;20451;-66
2024/01/04 00:46:08;;;;;;;20.48;13.65;;;;;;;;;;5079109;28;20060;-67
2024/01/04 00:48:34;;;;;;;19.65;12.25;;;;;;;;;;5077385;28;20031;-67
2024/01/04 00:51:01;;;;;;;17.00;11.93;;;;;;;;;;5078165;28;20048;-69
2024/01/04 00:53:26;;;;;;;15.25;10.98;;;;;;;;;;5075896;28;20111;-68
2024/01/04 00:55:52;;;;;;;15.88;11.40;;;;;;;;;;5076686;28;20027;-68
2024/01/04 00:58:17;;;;;;;15.43;10.48;;;;;;;;;;5075781;28;20806;-68
2024/01/04 01:00:43;;;;;;;12.07;9.45;;;;;;;;;;5074310;28;20039;-68
2024/01/04 01:03:08;;;;;;;17.17;11.45;;;;;;;;;;5076155;28;20408;-69
2024/01/04 01:05:34;;;;;;;18.58;13.75;;;;;;;;;;5070842;28;20335;-68
2024/01/04 01:08:01;;;;;;;20.38;12.82;;;;;;;;;;5077531;28;20048;-69
2024/01/04 01:10:27;;;;;;;16.58;12.02;;;;;;;;;;5076044;28;20035;-66
2024/01/04 01:12:53;;;;;;;21.75;14.05;;;;;;;;;;5077933;28;20076;-68
2024/01/04 01:15:18;;;;;;;68.13;46.72;;;;;;;;;;5077426;28;20399;-68
2024/01/04 01:17:44;;;;;;;30.58;20.42;;;;;;;;;;5075913;28;20632;-68
2024/01/04 01:20:09;;;;;;;21.15;15.18;;;;;;;;;;5076459;28;20063;-68
2024/01/04 01:22:35;;;;;;;24.50;18.20;;;;;;;;;;5092113;28;20110;-68
2024/01/04 01:25:00;;;;;;;25.05;18.88;;;;;;;;;;5096520;28;20042;-68
2024/01/04 01:27:25;;;;;;;24.27;16.10;;;;;;;;;;5098257;28;20042;-67
2024/01/04 01:29:51;;;;;;;22.45;14.75;;;;;;;;;;5098449;28;20081;-68
2024/01/04 01:32:16;;;;;;;34.53;24.52;;;;;;;;;;5098035;28;20389;-67
2024/01/04 01:34:42;;;;;;;39.05;27.20;;;;;;;;;;5095620;28;20024;-66
2024/01/04 01:37:07;;;;;;;44.90;30.00;;;;;;;;;;5096414;28;20034;-65
2024/01/04 01:39:32;;;;;;;36.45;25.40;;;;;;;;;;5099382;28;20036;-67
2024/01/04 01:41:58;;;;;;;49.55;32.47;;;;;;;;;;5097715;28;20058;-68
2024/01/04 01:44:23;;;;;;;54.13;35.20;;;;;;;;;;5082267;28;20020;-68
2024/01/04 01:46:48;;;;;;;39.55;26.27;;;;;;;;;;5098094;28;20028;-68
2024/01/04 01:49:14;;;;;;;32.38;20.73;;;;;;;;;;5097686;28;20104;-68
2024/01/04 01:51:39;;;;;;;35.75;26.23;;;;;;;;;;5099443;28;20067;-68
2024/01/04 01:54:05;;;;;;;31.52;20.42;;;;;;;;;;5099796;28;20035;-69
2024/01/04 01:56:30;;;;;;;27.63;17.15;;;;;;;;;;5098845;28;20365;-66
2024/01/04 01:58:57;;;;;;;24.90;15.23;;;;;;;;;;5098963;28;20081;-67
2024/01/04 02:01:22;;;;;;;68.25;49.60;;;;;;;;;;5086731;28;20032;-69
2024/01/04 02:03:48;;;;;;;42.28;31.92;;;;;;;;;;5075330;28;20419;-68
2024/01/04 02:06:13;;;;;;;37.33;26.55;;;;;;;;;;5094786;28;20055;-67
2024/01/04 02:08:39;;;;;;;33.97;23.65;;;;;;;;;;5098973;28;20050;-66
2024/01/04 02:11:04;;;;;;;125.88;87.00;;;;;;;;;;5097848;28;20391;-66
2024/01/04 02:13:30;;;;;;;95.43;63.72;;;;;;;;;;5099767;28;20034;-67
2024/01/04 02:15:55;;;;;;;63.50;46.20;;;;;;;;;;5097651;28;21198;-67
2024/01/04 02:18:21;;;;;;;56.55;36.97;;;;;;;;;;5084356;28;20031;-67
2024/01/04 02:20:46;;;;;;;61.67;45.67;;;;;;;;;;5063016;28;20039;-67
2024/01/04 02:23:17;;;;;;;44.63;33.25;;;;;;;;;;5098901;28;20037;-67
2024/01/04 02:25:43;;;;;;;89.47;63.95;;;;;;;;;;5097399;28;20031;-66
2024/01/04 02:28:08;;;;;;;81.35;59.15;;;;;;;;;;5097267;28;20407;-68
2024/01/04 02:30:34;;;;;;;55.83;41.92;;;;;;;;;;5097157;28;20041;-67
2024/01/04 02:33:00;;;;;;;45.90;33.65;;;;;;;;;;5097221;28;20103;-66
2024/01/04 02:35:25;;;;;;;60.05;41.03;;;;;;;;;;5097721;28;20439;-68
2024/01/04 02:37:51;;;;;;;76.25;50.05;;;;;;;;;;5098425;28;20021;-67
2024/01/04 02:40:16;;;;;;;60.78;36.30;;;;;;;;;;5099021;28;20032;-68
2024/01/04 02:42:41;;;;;;;36.17;22.92;;;;;;;;;;5094361;28;20016;-67
2024/01/04 02:45:07;;;;;;;25.00;16.50;;;;;;;;;;5099431;28;20028;-67
2024/01/04 02:47:32;;;;;;;18.70;12.75;;;;;;;;;;5099734;28;20101;-67
2024/01/04 02:49:57;;;;;;;70.20;48.13;;;;;;;;;;5097389;28;20420;-68
2024/01/04 02:52:23;;;;;;;24.88;17.50;;;;;;;;;;5097145;28;21090;-68
2024/01/04 02:54:48;;;;;;;20.55;14.70;;;;;;;;;;5089682;28;20765;-66
2024/01/04 02:57:13;;;;;;;17.55;10.98;;;;;;;;;;5094893;28;20491;-66
2024/01/04 02:59:39;;;;;;;14.00;7.38;;;;;;;;;;5090086;28;20455;-68
2024/01/04 03:02:04;;;;;;;8.20;5.00;;;;;;;;;;5095352;28;20062;-68
2024/01/04 03:04:30;;;;;;;11.20;6.72;;;;;;;;;;5095997;28;20023;-68
2024/01/04 03:06:55;;;;;;;39.63;26.85;;;;;;;;;;5097898;28;20028;-67
2024/01/04 03:09:21;;;;;;;51.70;35.33;;;;;;;;;;5089906;28;23648;-67
2024/01/04 03:11:47;;;;;;;59.60;43.65;;;;;;;;;;5084646;28;20055;-67
2024/01/04 03:14:12;;;;;;;68.03;45.08;;;;;;;;;;5096134;28;20089;-67
2024/01/04 03:16:37;;;;;;;57.13;35.83;;;;;;;;;;5091583;28;20027;-68
2024/01/04 03:19:03;;;;;;;108.60;76.30;;;;;;;;;;5078816;28;20150;-68
2024/01/04 03:21:28;;;;;;;95.97;69.82;;;;;;;;;;5096241;28;20040;-66
2024/01/04 03:23:53;;;;;;;53.85;37.90;;;;;;;;;;5096579;28;20179;-66
2024/01/04 03:26:19;;;;;;;62.97;46.85;;;;;;;;;;5096426;28;20150;-66
2024/01/04 03:28:44;;;;;;;60.75;39.75;;;;;;;;;;5094145;28;20746;-66
2024/01/04 03:31:09;;;;;;;361.13;204.57;;;;;;;;;;5093382;28;20111;-66
2024/01/04 03:33:35;;;;;;;137.23;82.68;;;;;;;;;;5097721;28;20078;-67
2024/01/04 03:36:00;;;;;;;128.85;76.68;;;;;;;;;;5095955;28;20039;-67
2024/01/04 03:38:26;;;;;;;277.25;175.63;;;;;;;;;;5096142;28;20028;-68
2024/01/04 03:40:51;;;;;;;219.30;136.27;;;;;;;;;;5097140;28;20031;-67
2024/01/04 03:43:17;;;;;;;93.97;59.92;;;;;;;;;;5097885;28;20046;-67
2024/01/04 03:45:42;;;;;;;61.25;42.55;;;;;;;;;;5096703;28;20039;-64
2024/01/04 03:48:07;;;;;;;57.40;39.45;;;;;;;;;;5083155;28;20039;-66
2024/01/04 03:50:33;;;;;;;46.38;30.65;;;;;;;;;;5093245;28;20075;-67
2024/01/04 03:52:58;;;;;;;46.42;32.83;;;;;;;;;;5097419;28;20035;-67
2024/01/04 03:55:23;;;;;;;38.67;26.67;;;;;;;;;;5094364;28;20118;-67
2024/01/04 03:57:50;;;;;;;66.45;46.85;;;;;;;;;;5096657;28;20415;-67
2024/01/04 04:00:16;;;;;;;50.13;37.40;;;;;;;;;;5097353;28;20059;-67
2024/01/04 04:02:41;;;;;;;39.92;28.48;;;;;;;;;;5094542;28;20057;-66
2024/01/04 04:05:07;;;;;;;99.10;70.35;;;;;;;;;;5096055;28;20042;-66
2024/01/04 04:07:32;;;;;;;94.50;67.93;;;;;;;;;;5097471;28;20040;-65
2024/01/04 04:09:57;;;;;;;68.38;50.95;;;;;;;;;;5096659;28;20035;-68
2024/01/04 04:12:23;;;;;;;40.47;30.40;;;;;;;;;;5097162;28;20035;-68
2024/01/04 04:14:49;;;;;;;33.38;24.17;;;;;;;;;;5097086;28;20128;-66
2024/01/04 04:17:17;;;;;;;47.13;34.40;;;;;;;;;;5077680;28;20431;-67
2024/01/04 04:19:42;;;;;;;49.63;37.35;;;;;;;;;;5083515;28;20035;-67
2024/01/04 04:22:08;;;;;;;57.00;43.72;;;;;;;;;;5095993;28;20026;-66
2024/01/04 04:24:33;;;;;;;45.67;35.70;;;;;;;;;;5086601;28;20101;-68
2024/01/04 04:26:59;;;;;;;13.73;9.80;;;;;;;;;;5082280;28;20020;-66
2024/01/04 04:29:24;;;;;;;38.38;29.50;;;;;;;;;;5096731;28;20077;-66
2024/01/04 04:31:50;;;;;;;27.95;23.30;;;;;;;;;;5097056;28;20035;-67
2024/01/04 04:34:15;;;;;;;33.28;26.35;;;;;;;;;;5095781;28;20055;-67
2024/01/04 04:36:40;;;;;;;27.75;21.33;;;;;;;;;;5080057;28;20087;-66
2024/01/04 04:39:07;;;;;;;14.75;11.40;;;;;;;;;;5085611;28;20378;-66
2024/01/04 04:41:32;;;;;;;16.27;9.52;;;;;;;;;;5082018;28;20043;-66
2024/01/04 04:43:58;;;;;;;19.27;15.63;;;;;;;;;;5095223;28;20027;-69
2024/01/04 04:46:23;;;;;;;10.40;8.60;;;;;;;;;;5096610;28;20016;-67
2024/01/04 04:48:54;;;;;;;12.43;9.10;;;;;;;;;;5095920;28;20122;-67
2024/01/04 04:51:20;;;;;;;60.03;47.40;;;;;;;;;;5094712;28;20057;-67
2024/01/04 04:53:45;;;;;;;41.15;32.53;;;;;;;;;;5078362;28;20024;-68
2024/01/04 04:56:10;;;;;;;44.83;36.40;;;;;;;;;;5094491;28;20024;-67
2024/01/04 04:58:36;;;;;;;24.05;18.15;;;;;;;;;;5075512;28;20020;-69
2024/01/04 05:01:01;;;;;;;18.25;13.80;;;;;;;;;;5093198;28;20210;-64
2024/01/04 05:03:27;;;;;;;15.18;11.63;;;;;;;;;;5078676;28;20039;-66
2024/01/04 05:05:52;;;;;;;12.80;9.23;;;;;;;;;;5074528;28;20027;-66
2024/01/04 05:08:18;;;;;;;8.75;7.03;;;;;;;;;;5074118;28;20109;-68
2024/01/04 05:10:43;;;;;;;11.55;7.13;;;;;;;;;;5074046;28;20036;-67
2024/01/04 05:13:09;;;;;;;11.52;7.50;;;;;;;;;;5075890;28;20031;-67
2024/01/04 05:15:34;;;;;;;11.15;5.97;;;;;;;;;;5085635;28;20066;-68
2024/01/04 05:17:59;;;;;;;11.82;5.45;;;;;;;;;;5080184;28;20054;-68
2024/01/04 05:20:25;;;;;;;9.80;5.22;;;;;;;;;;5085962;28;20034;-67
2024/01/04 05:22:50;;;;;;;9.45;6.10;;;;;;;;;;5070722;28;20035;-65
2024/01/04 05:25:15;;;;;;;9.70;5.95;;;;;;;;;;5098273;28;20088;-67
2024/01/04 05:27:41;;;;;;;6.95;4.00;;;;;;;;;;5096427;28;20039;-66
2024/01/04 05:30:07;;;;;;;7.85;3.30;;;;;;;;;;5098608;28;20032;-66
2024/01/04 05:32:33;;;;;;;6.65;3.58;;;;;;;;;;5098213;28;20032;-68
2024/01/04 05:34:58;;;;;;;5.88;3.20;;;;;;;;;;5095830;28;20391;-69
2024/01/04 05:37:24;;;;;;;58.75;46.83;;;;;;;;;;5093427;28;20019;-68
2024/01/04 05:39:49;;;;;;;35.10;26.35;;;;;;;;;;5081866;28;20403;-65
2024/01/04 05:42:14;;;;;;;27.25;19.00;;;;;;;;;;5097421;28;20273;-67
2024/01/04 05:44:40;;;;;;;33.50;23.90;;;;;;;;;;5089251;28;20034;-67
2024/01/04 05:47:05;;;;;;;77.93;65.15;;;;;;;;;;5077837;28;20035;-66
2024/01/04 05:49:30;;;;;;;67.25;57.17;;;;;;;;;;5098191;28;20036;-67
2024/01/04 05:51:56;;;;;;;57.70;46.95;;;;;;;;;;5084865;28;20052;-67
2024/01/04 05:54:22;;;;;;;44.08;35.78;;;;;;;;;;5077553;28;20811;-68
2024/01/04 05:56:47;;;;;;;87.50;64.13;;;;;;;;;;5088420;28;20020;-68
2024/01/04 05:59:13;;;;;;;43.70;32.70;;;;;;;;;;5080970;28;20035;-67
2024/01/04 06:01:39;;;;;;;56.83;44.45;;;;;;;;;;5077672;28;20042;-66
2024/01/04 06:04:04;;;;;;;137.73;102.75;;;;;;;;;;5095561;28;20386;-65
2024/01/04 06:06:30;;;;;;;90.72;68.97;;;;;;;;;;5099748;28;20219;-68
2024/01/04 06:08:55;;;;;;;91.90;70.15;;;;;;;;;;5098134;28;20059;-66
2024/01/04 06:11:20;;;;;;;107.88;71.50;;;;;;;;;;5078091;28;20122;-66
2024/01/04 06:13:46;;;;;;;37.25;25.70;;;;;;;;;;5078822;28;20608;-67
2024/01/04 06:16:11;;;;;;;14.18;8.27;;;;;;;;;;5073719;28;20122;-67
2024/01/04 06:18:37;;;;;;;11.13;8.18;;;;;;;;;;5077447;28;20028;-68
2024/01/04 06:21:02;;;;;;;93.20;73.43;;;;;;;;;;5076212;28;20035;-68
2024/01/04 06:23:28;;;;;;;241.55;216.85;;;;;;;;;;5090850;28;20020;-67
2024/01/04 06:25:53;;;;;;;838.13;683.95;;;;;;;;;;5095474;28;20028;-66
2024/01/04 06:28:20;;;;;;;372.95;302.48;;;;;;;;;;5095859;28;20030;-65
2024/01/04 06:30:45;;;;;;;414.52;312.15;;;;;;;;;;5092849;28;20032;-66
2024/01/04 06:33:10;;;;;;;122.57;91.75;;;;;;;;;;5097263;28;20099;-67
2024/01/04 06:35:36;;;;;;;84.55;68.25;;;;;;;;;;5083217;28;20899;-66
2024/01/04 06:38:04;;;;;;;133.75;109.93;;;;;;;;;;5092315;28;20015;-67
2024/01/04 06:40:29;;;;;;;124.28;102.97;;;;;;;;;;5088640;28;20059;-67
2024/01/04 06:42:55;;;;;;;112.53;98.93;;;;;;;;;;5091781;28;20617;-65
2024/01/04 06:45:24;;;;;;;127.38;106.05;;;;;;;;;;5096321;28;20399;-67
2024/01/04 06:47:50;;;;;;;134.45;112.50;;;;;;;;;;5092679;28;21208;-68
2024/01/04 06:50:15;;;;;;;238.07;211.82;;;;;;;;;;5079607;28;20523;-67
2024/01/04 06:52:40;;;;;;;442.40;396.38;;;;;;;;;;5084840;28;20027;-66
2024/01/04 06:55:06;;;;;;;127.47;113.30;;;;;;;;;;5097127;28;20038;-67
2024/01/04 06:57:31;;;;;;;165.18;141.27;;;;;;;;;;5097488;28;20039;-66
2024/01/04 06:59:57;;;;;;;85.15;72.15;;;;;;;;;;5078252;28;20104;-67
2024/01/04 07:02:22;;;;;;;308.02;238.93;;;;;;;;;;5084047;28;20093;-67
2024/01/04 07:04:47;;;;;;;285.52;236.77;;;;;;;;;;5089734;28;20038;-70
2024/01/04 07:07:13;;;;;;;259.55;221.63;;;;;;;;;;5084004;28;20024;-67
2024/01/04 07:09:38;;;;;;;142.68;124.63;;;;;;;;;;5085790;28;20048;-67
2024/01/04 07:12:05;;;;;;;93.18;83.38;;;;;;;;;;5078646;28;20040;-71
2024/01/04 07:14:31;;;;;;;179.32;150.35;;;;;;;;;;5084704;28;20020;-71
2024/01/04 07:16:56;;;;;;;123.55;102.88;;;;;;;;;;5077778;28;20126;-70
2024/01/04 07:19:22;;;;;;;77.93;60.22;;;;;;;;;;5093855;28;20312;-70
2024/01/04 07:21:48;;;;;;;149.52;134.15;;;;;;;;;;5083816;28;20028;-69
2024/01/04 07:24:13;;;;;;;98.72;82.30;;;;;;;;;;5079558;28;20039;-69
2024/01/04 07:26:39;;;;;;;27.52;23.60;;;;;;;;;;5075468;28;20122;-69
2024/01/04 07:29:04;;;;;;;41.22;34.60;;;;;;;;;;5074657;28;20465;-70
2024/01/04 07:31:30;;;;;;;72.97;62.03;;;;;;;;;;5076601;28;20571;-69
2024/01/04 07:33:56;;;;;;;77.03;59.15;;;;;;;;;;5074513;28;20024;-71
2024/01/04 07:36:21;;;;;;;35.78;29.88;;;;;;;;;;5076170;28;20016;-70
2024/01/04 07:38:46;;;;;;;12.63;9.38;;;;;;;;;;5079543;28;20027;-70
2024/01/04 07:41:12;;;;;;;35.08;26.85;;;;;;;;;;5080151;28;20024;-65
2024/01/04 07:43:37;;;;;;;42.55;35.65;;;;;;;;;;5074910;28;20093;-69
2024/01/04 07:46:03;;;;;;;73.15;59.05;;;;;;;;;;5074471;28;20056;-70
2024/01/04 07:48:29;;;;;;;41.58;32.88;;;;;;;;;;5077567;28;20124;-67
2024/01/04 07:50:55;;;;;;;27.30;22.65;;;;;;;;;;5077606;28;22050;-69
2024/01/04 07:53:21;;;;;;;16.02;13.35;;;;;;;;;;5075323;28;20035;-71
2024/01/04 07:55:46;;;;;;;16.98;13.02;;;;;;;;;;5076030;28;20040;-69
2024/01/04 07:58:11;;;;;;;41.80;36.33;;;;;;;;;;5076392;28;20085;-70
2024/01/04 08:00:37;;;;;;;28.55;25.48;;;;;;;;;;5095639;28;20355;-64
2024/01/04 08:03:03;;;;;;;16.63;14.88;;;;;;;;;;5095007;28;20031;-70
2024/01/04 08:05:29;;;;;;;26.40;23.40;;;;;;;;;;5091712;28;21018;-68
2024/01/04 08:07:54;;;;;;;22.65;19.15;;;;;;;;;;5090444;28;20043;-70
2024/01/04 08:10:19;;;;;;;19.77;16.77;;;;;;;;;;5093995;28;20031;-68
2024/01/04 08:12:45;;;;;;;47.25;38.03;;;;;;;;;;5088490;28;20015;-71
2024/01/04 08:15:11;;;;;;;43.50;35.85;;;;;;;;;;5078911;28;20381;-71
2024/01/04 08:17:36;;;;;;;16.08;10.32;;;;;;;;;;5092924;28;20034;-68
2024/01/04 08:20:02;;;;;;;18.42;13.95;;;;;;;;;;5076364;28;20952;-67
2024/01/04 08:22:27;;;;;;;28.10;23.00;;;;;;;;;;5077389;28;20070;-68
2024/01/04 08:24:53;;;;;;;30.48;22.50;;;;;;;;;;5078976;28;20055;-70
2024/01/04 08:27:19;;;;;;;7.22;5.70;;;;;;;;;;5089759;28;20426;-70
2024/01/04 08:29:48;;;;;;;9.65;7.45;;;;;;;;;;5071059;28;20111;-71
2024/01/04 08:32:17;;;;;;;10.63;8.43;;;;;;;;;;5071623;28;20464;-72
2024/01/04 08:34:42;;;;;;;7.30;6.28;;;;;;;;;;5070039;28;20049;-69
2024/01/04 08:37:08;;;;;;;4.93;4.03;;;;;;;;;;5074602;28;20024;-70
2024/01/04 08:39:33;;;;;;;5.07;3.83;;;;;;;;;;5073356;28;20498;-67
2024/01/04 08:41:58;;;;;;;4.93;4.50;;;;;;;;;;5073198;28;20031;-70
2024/01/04 08:44:25;;;;;;;9.43;6.00;;;;;;;;;;5088424;28;20431;-71
2024/01/04 08:46:50;;;;;;;11.50;9.90;;;;;;;;;;5080060;28;20024;-70
2024/01/04 08:49:16;;;;;;;8.45;6.80;;;;;;;;;;5095946;28;20092;-70
2024/01/04 08:51:41;;;;;;;12.25;8.05;;;;;;;;;;5073995;28;20040;-72
2024/01/04 08:54:07;;;;;;;8.52;7.55;;;;;;;;;;5073815;28;20024;-71
2024/01/04 08:56:33;;;;;;;7.88;4.78;;;;;;;;;;5087596;28;20487;-69
2024/01/04 08:58:58;;;;;;;15.52;9.77;;;;;;;;;;5074981;28;20084;-69
2024/01/04 09:01:24;;;;;;;17.08;11.80;;;;;;;;;;5079056;28;20127;-71
2024/01/04 09:03:50;;;;;;;9.38;6.85;;;;;;;;;;5058223;28;20109;-72
2024/01/04 09:06:16;;;;;;;29.85;17.17;;;;;;;;;;5079029;28;20099;-68
2024/01/04 09:08:41;;;;;;;7.70;5.35;;;;;;;;;;5076762;28;20341;-66
2024/01/04 09:11:06;;;;;;;54.53;41.22;;;;;;;;;;5075690;28;20032;-70
2024/01/04 09:13:32;;;;;;;9.73;5.68;;;;;;;;;;5056953;28;20027;-73
2024/01/04 09:15:58;;;;;;;6.03;3.90;;;;;;;;;;5056900;28;20593;-71
2024/01/04 09:18:23;;;;;;;8.93;5.70;;;;;;;;;;5076572;28;20031;-72
2024/01/04 09:20:49;;;;;;;11.88;7.00;;;;;;;;;;5075309;28;20107;-74
2024/01/04 09:23:14;;;;;;;20.80;13.40;;;;;;;;;;5073554;28;20027;-73
2024/01/04 09:25:39;;;;;;;13.90;11.48;;;;;;;;;;5077364;28;20032;-69
2024/01/04 09:28:05;;;;;;;6.05;4.15;;;;;;;;;;5076721;28;20036;-66
2024/01/04 09:30:30;;;;;;;6.32;4.22;;;;;;;;;;5074917;28;20123;-74
2024/01/04 09:32:56;;;;;;;10.82;5.13;;;;;;;;;;5072695;28;20035;-65
2024/01/04 09:35:23;;;;;;;11.88;6.18;;;;;;;;;;5072931;28;20028;-66
2024/01/04 09:37:51;;;;;;;8.18;4.25;;;;;;;;;;5083947;28;20164;-73
2024/01/04 09:40:17;;;;;;;22.15;16.13;;;;;;;;;;5093641;28;20047;-72
2024/01/04 09:42:43;;;;;;;22.67;17.38;;;;;;;;;;5075899;28;20035;-71
2024/01/04 09:45:13;;;;;;;30.70;22.02;;;;;;;;;;5075129;28;20395;-70
2024/01/04 09:47:38;;;;;;;;;;;;;;;;;;5077622;28;20023;-74
2024/01/04 09:50:04;;;;;;;25.63;20.00;;;;;;;;;;5085290;28;19916;-72
2024/01/04 09:52:29;;;;;;;14.27;11.25;;;;;;;;;;5097559;28;20280;-71
2024/01/04 09:54:56;;;;;;;15.93;12.80;;;;;;;;;;5098902;28;20019;-74
2024/01/04 09:57:22;;;;;;;12.65;10.20;;;;;;;;;;5082141;28;20465;-68
2024/01/04 09:59:47;;;;;;;11.15;8.70;;;;;;;;;;5087070;28;20066;-70
2024/01/04 10:02:14;;;;;;;15.95;12.63;;;;;;;;;;5078868;28;20386;-74
2024/01/04 10:04:40;;;;;;;14.98;10.63;;;;;;;;;;5079233;28;20443;-74
2024/01/04 10:07:06;;;;;;;8.73;6.85;;;;;;;;;;5098714;28;20046;-66
2024/01/04 10:09:38;;;;;;;13.73;5.55;;;;;;;;;;5093583;28;20372;-66
2024/01/04 10:12:05;;;;;;;10.48;7.03;;;;;;;;;;5079643;28;20032;-72
2024/01/04 10:14:31;;;;;;;8.15;5.70;;;;;;;;;;5075922;28;20028;-73
2024/01/04 10:16:56;;;;;;;11.27;9.45;;;;;;;;;;5079009;28;20036;-69
2024/01/04 10:19:23;;;;;;;16.83;13.82;;;;;;;;;;5073971;28;20036;-64
2024/01/04 10:21:48;;;;;;;13.13;9.38;;;;;;;;;;5075459;28;20106;-67
2024/01/04 10:24:20;;;;;;;18.23;15.35;;;;;;;;;;5074199;28;20035;-69
2024/01/04 10:26:52;;;;;;;12.90;10.48;;;;;;;;;;5089282;28;20051;-69
2024/01/04 10:29:21;;;;;;;13.60;10.32;;;;;;;;;;5083777;28;20452;-72
2024/01/04 10:31:56;;;;;;;66.70;59.90;;;;;;;;;;5079067;28;20393;-71
2024/01/04 10:34:22;;;;;;;15.60;10.60;;;;;;;;;;5080478;28;20463;-71
2024/01/04 10:36:47;;;;;;;12.10;9.23;;;;;;;;;;5077075;28;20031;-69
2024/01/04 10:39:17;;;;;;;13.60;10.25;;;;;;;;;;5075129;28;20035;-70
2024/01/04 10:41:44;;;;;;;11.02;8.18;;;;;;;;;;5059625;28;20757;-71
2024/01/04 10:44:09;;;;;;;14.88;9.27;;;;;;;;;;5079151;28;20110;-70
2024/01/04 10:46:35;;;;;;;14.50;11.73;;;;;;;;;;5092366;28;20111;-71
2024/01/04 10:49:02;;;;;;;139.13;89.15;;;;;;;;;;5085466;28;20438;-72
2024/01/04 10:51:29;;;;;;;68.45;41.42;;;;;;;;;;5091359;28;20347;-73
2024/01/04 10:53:57;;;;;;;23.63;16.35;;;;;;;;;;5080169;28;20456;-73
2024/01/04 10:56:23;;;;;;;21.83;17.15;;;;;;;;;;5079568;28;20228;-71
2024/01/04 10:58:50;;;;;;;33.45;24.48;;;;;;;;;;5081019;28;20446;-73
2024/01/04 11:01:16;;;;;;;25.55;18.58;;;;;;;;;;5082084;28;20024;-74
2024/01/04 11:03:42;;;;;;;21.27;16.17;;;;;;;;;;5083528;28;20156;-68
2024/01/04 11:06:08;;;;;;;19.50;15.40;;;;;;;;;;5082453;28;20027;-68
2024/01/04 11:08:35;;;;;;;13.85;11.70;;;;;;;;;;5082989;28;20051;-70
2024/01/04 11:11:01;;;;;;;16.17;11.45;;;;;;;;;;5082049;28;20117;-74
2024/01/04 11:13:27;;;;;;;11.07;9.90;;;;;;;;;;5078697;28;20443;-73
2024/01/04 11:15:54;;;;;;;11.90;9.13;;;;;;;;;;5065637;28;20048;-68
2024/01/04 11:18:20;;;;;;;16.88;12.93;;;;;;;;;;5067880;28;20374;-71
2024/01/04 11:20:54;;;;;;;16.58;12.18;;;;;;;;;;5079735;28;20035;-71
2024/01/04 11:23:26;;;;;;;19.65;15.88;;;;;;;;;;5075922;28;20054;-65
2024/01/04 11:26:10;;;;;;;26.77;21.73;;;;;;;;;;5079360;28;20114;-71
2024/01/04 11:28:35;;;;;;;36.03;31.88;;;;;;;;;;5079440;28;20023;-71
2024/01/04 11:31:01;;;;;;;41.72;37.08;;;;;;;;;;5079360;28;20050;-67
2024/01/04 11:33:28;;;;;;;43.88;39.22;;;;;;;;;;5083310;28;20045;-72
2024/01/04 11:35:53;;;;;;;42.10;28.25;;;;;;;;;;5076461;28;20030;-70
2024/01/04 11:38:23;;;;;;;35.47;24.63;;;;;;;;;;5075789;28;20023;-67
2024/01/04 11:40:48;;;;;;;;;;;;;;;;;;5075439;28;20028;-72
2024/01/04 11:43:14;;;;;;;43.00;38.80;;;;;;;;;;5077418;28;19917;-64
2024/01/04 11:45:44;;;;;;;57.03;36.40;;;;;;;;;;5073869;28;20475;-66
2024/01/04 11:48:10;;;;;;;44.33;29.65;;;;;;;;;;5070889;28;20031;-68
2024/01/04 11:50:36;;;;;;;45.25;34.08;;;;;;;;;;5073128;28;20123;-69
2024/01/04 11:53:06;;;;;;;26.35;22.00;;;;;;;;;;5073201;28;20103;-68
2024/01/04 11:55:33;;;;;;;22.27;16.25;;;;;;;;;;5076924;28;20050;-67
2024/01/04 11:58:05;;;;;;;21.02;12.70;;;;;;;;;;5072157;28;20028;-71
2024/01/04 12:00:34;;;;;;;60.15;44.42;;;;;;;;;;5087946;28;20442;-71
2024/01/04 12:03:00;;;;;;;119.78;80.15;;;;;;;;;;5077853;28;20122;-69
2024/01/04 12:05:27;;;;;;;102.57;65.00;;;;;;;;;;5075825;28;20020;-69
2024/01/04 12:07:54;;;;;;;68.25;47.92;;;;;;;;;;5078122;28;20077;-66
2024/01/04 12:10:19;;;;;;;53.33;41.08;;;;;;;;;;5076976;28;20488;-70
2024/01/04 12:12:48;;;;;;;14.20;10.65;;;;;;;;;;5073646;28;20164;-68
2024/01/04 12:15:14;;;;;;;10.98;8.27;;;;;;;;;;5074128;27;20066;-68
2024/01/04 12:17:40;;;;;;;16.85;13.23;;;;;;;;;;5072452;28;20020;-69
2024/01/04 12:20:09;;;;;;;41.50;26.83;;;;;;;;;;5075645;28;20119;-73
2024/01/04 12:22:38;;;;;;;37.95;29.05;;;;;;;;;;5076407;28;20042;-67
2024/01/04 12:25:04;;;;;;;24.50;20.65;;;;;;;;;;5075243;28;20024;-71
2024/01/04 12:27:32;;;;;;;22.23;19.98;;;;;;;;;;5072067;28;20359;-65
2024/01/04 12:29:57;;;;;;;12.05;10.85;;;;;;;;;;5069707;28;20035;-71
2024/01/04 12:32:23;;;;;;;20.48;18.33;;;;;;;;;;5072154;28;20019;-70
2024/01/04 12:34:49;;;;;;;48.70;31.35;;;;;;;;;;5072147;28;20030;-72
2024/01/04 12:37:16;;;;;;;27.23;16.50;;;;;;;;;;5071220;28;20024;-70
2024/01/04 12:39:42;;;;;;;48.25;41.17;;;;;;;;;;5073729;28;20477;-71
2024/01/04 12:42:12;;;;;;;66.05;56.55;;;;;;;;;;5074352;28;20047;-72
2024/01/04 12:44:37;;;;;;;65.30;47.58;;;;;;;;;;5073364;28;20036;-71
2024/01/04 12:47:03;;;;;;;60.33;54.00;;;;;;;;;;5074037;28;20031;-73
2024/01/04 12:49:29;;;;;;;49.65;44.72;;;;;;;;;;5079429;28;20700;-67
2024/01/04 12:51:54;;;;;;;66.55;59.67;;;;;;;;;;5077680;28;22308;-67
2024/01/04 12:54:20;;;;;;;53.80;48.20;;;;;;;;;;5063149;28;20687;-66
2024/01/04 12:56:45;;;;;;;117.53;90.93;;;;;;;;;;5076265;28;20028;-68
2024/01/04 12:59:12;;;;;;;102.72;81.28;;;;;;;;;;5079146;28;20020;-70
2024/01/04 13:01:38;;;;;;;86.40;69.90;;;;;;;;;;5075215;28;20028;-72
2024/01/04 13:04:03;;;;;;;178.32;140.10;;;;;;;;;;5072048;28;20054;-71
2024/01/04 13:06:28;;;;;;;125.35;101.68;;;;;;;;;;5075529;28;20035;-67
2024/01/04 13:08:57;;;;;;;53.90;45.88;;;;;;;;;;5071843;28;20175;-67
2024/01/04 13:11:23;;;;;;;50.95;41.15;;;;;;;;;;5073553;28;20101;-68
2024/01/04 13:13:50;;;;;;;42.25;37.45;;;;;;;;;;5072054;28;20020;-68
2024/01/04 13:16:16;;;;;;;35.60;29.58;;;;;;;;;;5052630;28;20046;-68
2024/01/04 13:18:41;;;;;;;34.17;27.27;;;;;;;;;;5053148;28;20038;-69
2024/01/04 13:21:07;;;;;;;51.00;37.63;;;;;;;;;;5072829;28;20035;-68
2024/01/04 13:23:33;;;;;;;33.40;25.85;;;;;;;;;;5080499;28;20365;-69
2024/01/04 13:25:58;;;;;;;36.05;27.08;;;;;;;;;;5061809;28;20384;-69
2024/01/04 13:28:24;;;;;;;45.90;38.90;;;;;;;;;;5079203;28;20158;-67
2024/01/04 13:30:49;;;;;;;25.10;21.55;;;;;;;;;;5077781;28;20032;-67
2024/01/04 13:33:14;;;;;;;86.53;74.88;;;;;;;;;;5079372;28;20338;-67
2024/01/04 13:35:40;;;;;;;143.75;100.88;;;;;;;;;;5081954;28;20028;-65
2024/01/04 13:38:05;;;;;;;108.00;73.13;;;;;;;;;;5077835;28;20019;-66
2024/01/04 13:40:31;;;;;;;83.45;57.80;;;;;;;;;;5072249;28;20347;-68
2024/01/04 13:42:56;;;;;;;103.35;77.30;;;;;;;;;;5070213;28;20157;-68
2024/01/04 13:45:22;;;;;;;111.65;81.03;;;;;;;;;;5074125;28;20023;-67
2024/01/04 13:47:49;;;;;;;77.55;59.53;;;;;;;;;;5093771;28;20020;-68
2024/01/04 13:50:14;;;;;;;73.68;62.92;;;;;;;;;;5112490;28;20026;-69
2024/01/04 13:52:40;;;;;;;52.92;46.38;;;;;;;;;;5115750;28;20028;-68
2024/01/04 13:55:05;;;;;;;37.03;31.98;;;;;;;;;;5097734;28;20034;-68
2024/01/04 13:57:31;;;;;;;23.67;21.13;;;;;;;;;;5114197;28;20035;-69
2024/01/04 13:59:56;;;;;;;24.52;21.92;;;;;;;;;;5115193;28;20081;-68
2024/01/04 14:02:22;;;;;;;26.15;23.35;;;;;;;;;;5097618;28;20027;-68
2024/01/04 14:04:47;;;;;;;13.90;12.43;;;;;;;;;;5115698;28;20020;-66
2024/01/04 14:07:12;;;;;;;13.45;12.00;;;;;;;;;;5115404;28;20118;-69
2024/01/04 14:09:38;;;;;;;19.90;17.83;;;;;;;;;;5115909;28;20048;-66